Terminal Aerodrome Forecast
Issued by NWS Grand Forks, ND

Home | Current Version | Previous Version | Graphics & Text | Print | Product List | Glossary On
Versions: 1 2 3 4 5 6 7 8 9 10 11 12 13 14 15 16 17 18 19 20 21 22 23
000
FTUS43 KFGF 240844 AAA
TAFGFK
TAF AMD
KGFK 240844Z 2409/2506 35010KT P6SM BKN250
     FM241000 35009KT 5SM BR BKN035
     FM241400 36011KT P6SM SCT035
     FM250300 02007KT P6SM FEW100=

USA.gov is the U.S. government's official web portal to all federal, state and local government web resources and services.